createdAt,value
2023-03-18T00:07:23.000Z,1017.5710725268384
2023-03-18T00:09:54.000Z,1017.5463004727806
2023-03-18T00:12:24.000Z,1017.5806271888941
2023-03-18T00:14:53.000Z,1017.5719870968112
2023-03-18T00:17:21.000Z,1017.5754314027546
2023-03-18T00:20:06.000Z,1017.5798344690022
2023-03-18T00:22:26.000Z,1017.6347226109727
2023-03-18T00:24:52.000Z,1017.6092498578909
2023-03-18T00:27:14.000Z,1017.6011486630715
2023-03-18T00:29:37.000Z,1017.561539059893
2023-03-18T00:32:00.000Z,1017.5546918048346
2023-03-18T00:34:21.000Z,1017.5280450882725
2023-03-18T00:36:44.000Z,1017.5561741301964
2023-03-18T00:39:06.000Z,1017.5884500687238
2023-03-18T00:41:26.000Z,1017.6250874634677
2023-03-18T00:43:47.000Z,1017.6064045471655
2023-03-18T00:46:08.000Z,1017.5690619862633
2023-03-18T00:48:30.000Z,1017.5792758771033
2023-03-18T00:50:50.000Z,1017.6119972498116
2023-03-18T00:53:13.000Z,1017.6243823335651
2023-03-18T00:55:36.000Z,1017.6613038389038
2023-03-18T00:57:58.000Z,1017.5846641134603
2023-03-18T01:00:21.000Z,1017.6657344108526
2023-03-18T01:02:42.000Z,1017.6330943043129
2023-03-18T01:05:05.000Z,1017.6578512680857
2023-03-18T01:07:26.000Z,1017.6596797643821
2023-03-18T01:09:48.000Z,1017.6304826095976
2023-03-18T01:12:10.000Z,1017.6406018045427
2023-03-18T01:14:31.000Z,1017.5790405547884
2023-03-18T01:16:53.000Z,1017.5752509318166
2023-03-18T01:19:15.000Z,1017.5520974476526
2023-03-18T01:21:35.000Z,1017.548227873425
2023-03-18T01:23:59.000Z,1017.5755957813051
2023-03-18T01:26:22.000Z,1017.5627751144282
2023-03-18T01:28:43.000Z,1017.6134507394997
2023-03-18T01:31:05.000Z,1017.5197761909318
2023-03-18T01:33:26.000Z,1017.6328131737943
2023-03-18T01:35:48.000Z,1017.6803116697331
2023-03-18T01:38:10.000Z,1017.6472226047898
2023-03-18T01:40:34.000Z,1017.7044175086014
2023-03-18T01:42:56.000Z,1017.7326357110588
2023-03-18T01:45:18.000Z,1017.7261626844742
2023-03-18T01:47:41.000Z,1017.7273710115676
2023-03-18T01:50:02.000Z,1017.7878763342321
2023-03-18T01:52:23.000Z,1017.7772669925074
2023-03-18T01:54:45.000Z,1017.7678773309433
2023-03-18T01:57:08.000Z,1017.8018544711038
2023-03-18T01:59:28.000Z,1017.73579260819
2023-03-18T02:01:50.000Z,1017.822358074867
2023-03-18T02:04:12.000Z,1017.8281988726452
2023-03-18T02:06:33.000Z,1017.8260168853755
2023-03-18T02:08:56.000Z,1017.8081508908176
2023-03-18T02:11:18.000Z,1017.7080430987995
2023-03-18T02:13:40.000Z,1017.7276047075864
2023-03-18T02:16:02.000Z,1017.7104541120359
2023-03-18T02:18:24.000Z,1017.711923355009
2023-03-18T02:20:45.000Z,1017.7258826674806
2023-03-18T02:23:08.000Z,1017.657438073797
2023-03-18T02:25:29.000Z,1017.7582310154526
2023-03-18T02:27:51.000Z,1017.771738685824
2023-03-18T02:30:12.000Z,1017.7682734365914
2023-03-18T02:32:33.000Z,1017.7382361849177
2023-03-18T02:34:56.000Z,1017.7135029564253
2023-03-18T02:37:18.000Z,1017.778214968192
2023-03-18T02:39:40.000Z,1017.7703216697554
2023-03-18T02:42:03.000Z,1017.7232871595214
2023-03-18T02:44:24.000Z,1017.8213423819437
2023-03-18T02:46:45.000Z,1017.792593284718
2023-03-18T02:49:08.000Z,1017.8703515142003
2023-03-18T02:51:30.000Z,1017.8602091281779
2023-03-18T02:53:53.000Z,1017.8745708114524
2023-03-18T02:56:18.000Z,1017.8900127480616
2023-03-18T02:58:40.000Z,1017.869237760633
2023-03-18T03:01:03.000Z,1017.8827381001144
2023-03-18T03:03:25.000Z,1017.8872372153976
2023-03-18T03:05:45.000Z,1017.9645163529292
2023-03-18T03:08:08.000Z,1017.9334292856405
2023-03-18T03:10:30.000Z,1018.0264739227374
2023-03-18T03:12:51.000Z,1018.0042194880907
2023-03-18T03:15:14.000Z,1017.9726010878621
2023-03-18T03:17:36.000Z,1017.9993522151557
2023-03-18T03:19:57.000Z,1018.007273968146
2023-03-18T03:22:19.000Z,1018.0856425325182
2023-03-18T03:24:42.000Z,1018.143101257218
2023-03-18T03:27:04.000Z,1018.1360177546554
2023-03-18T03:29:26.000Z,1018.097139016772
2023-03-18T03:31:48.000Z,1018.1487213562094
2023-03-18T03:34:11.000Z,1018.1264904232564
2023-03-18T03:36:31.000Z,1018.1050237121167
2023-03-18T03:38:54.000Z,1018.1414107362625
2023-03-18T03:41:17.000Z,1018.1685319383008
2023-03-18T03:43:39.000Z,1018.1530512265188
2023-03-18T03:46:02.000Z,1018.2130708477268
2023-03-18T03:48:24.000Z,1018.2133635954406
2023-03-18T03:50:46.000Z,1018.2091482111507
2023-03-18T03:53:08.000Z,1018.2598851487498
2023-03-18T03:55:30.000Z,1018.256197105525
2023-03-18T03:57:53.000Z,1018.2514297866941
2023-03-18T04:00:15.000Z,1018.2959754742009
2023-03-18T04:02:36.000Z,1018.2860925382679
2023-03-18T04:04:58.000Z,1018.3159709567542
2023-03-18T04:07:19.000Z,1018.3216205873646
2023-03-18T04:09:42.000Z,1018.2863951102898
2023-03-18T04:12:05.000Z,1018.2869688281917
2023-03-18T04:14:27.000Z,1018.3873180682159
2023-03-18T04:16:48.000Z,1018.3557320696709
2023-03-18T04:19:10.000Z,1018.3650285159671
2023-03-18T04:21:32.000Z,1018.3929027938074
2023-03-18T04:23:53.000Z,1018.4016772757994
2023-03-18T04:26:16.000Z,1018.3627773706039
2023-03-18T04:28:38.000Z,1018.3644517698333
2023-03-18T04:31:00.000Z,1018.3512217693444
2023-03-18T04:33:22.000Z,1018.3768486885705
2023-03-18T04:35:45.000Z,1018.3714960893618
2023-03-18T04:38:05.000Z,1018.3675982504573
2023-03-18T04:40:27.000Z,1018.388982355652
2023-03-18T04:42:50.000Z,1018.3765293976543
2023-03-18T04:45:11.000Z,1018.4380224316285
2023-03-18T04:47:33.000Z,1018.4701521680037
2023-03-18T04:49:55.000Z,1018.4461996256381
2023-03-18T04:52:16.000Z,1018.4411397622468
2023-03-18T04:54:38.000Z,1018.3951883782651
2023-03-18T04:57:00.000Z,1018.4335607114198
2023-03-18T04:59:24.000Z,1018.425889148598
2023-03-18T05:01:45.000Z,1018.4456422866356
2023-03-18T05:04:07.000Z,1018.4160389421272
2023-03-18T05:06:29.000Z,1018.4002616556664
2023-03-18T05:08:49.000Z,1018.4741530472077
2023-03-18T05:11:12.000Z,1018.4854088470703
2023-03-18T05:13:35.000Z,1018.4848458213714
2023-03-18T05:15:57.000Z,1018.4673718578592
2023-03-18T05:18:20.000Z,1018.5008920801607
2023-03-18T05:20:42.000Z,1018.486489493681
2023-03-18T05:23:04.000Z,1018.5057244363875
2023-03-18T05:25:24.000Z,1018.5226384943305
2023-03-18T05:27:46.000Z,1018.5544773817173
2023-03-18T05:30:09.000Z,1018.5420712363831
2023-03-18T05:32:29.000Z,1018.576763526079
2023-03-18T05:34:51.000Z,1018.5657495642123
2023-03-18T05:37:12.000Z,1018.5400827423166
2023-03-18T05:39:34.000Z,1018.5246119358044
2023-03-18T05:41:57.000Z,1018.5877194453539
2023-03-18T05:44:19.000Z,1018.6062992279182
2023-03-18T05:46:42.000Z,1018.6931344318369
2023-03-18T05:49:10.000Z,1018.6805249061251
2023-03-18T05:51:35.000Z,1018.6931741499026
2023-03-18T05:53:58.000Z,1018.7053398150786
2023-03-18T05:56:22.000Z,1018.6856083390965
2023-03-18T05:58:44.000Z,1018.660771381346
2023-03-18T06:01:06.000Z,1018.6793913298893
2023-03-18T06:03:28.000Z,1018.6497804022873
2023-03-18T06:05:50.000Z,1018.5941311313063
2023-03-18T06:08:11.000Z,1018.6248954338945
2023-03-18T06:10:34.000Z,1018.593263511299
2023-03-18T06:12:56.000Z,1018.5699732235777
2023-03-18T06:15:19.000Z,1018.5694108368848
2023-03-18T06:17:41.000Z,1018.574633694227
2023-03-18T06:20:03.000Z,1018.6205124570869
2023-03-18T06:22:23.000Z,1018.6910013238347
2023-03-18T06:24:46.000Z,1018.71394449632
2023-03-18T06:27:09.000Z,1018.7664036049842
2023-03-18T06:29:31.000Z,1018.7324207339475
2023-03-18T06:31:54.000Z,1018.6898256973299
2023-03-18T06:34:16.000Z,1018.7414359925813
2023-03-18T06:36:39.000Z,1018.6641467520928
2023-03-18T06:39:00.000Z,1018.6666378796676
2023-03-18T06:41:21.000Z,1018.6822011585172
2023-03-18T06:43:43.000Z,1018.7578014047016
2023-03-18T06:46:07.000Z,1018.7174586875431
2023-03-18T06:48:28.000Z,1018.7032018780735
2023-03-18T06:50:50.000Z,1018.7543731344995
2023-03-18T06:53:12.000Z,1018.7916884784776
2023-03-18T06:55:34.000Z,1018.7883384675711
2023-03-18T06:57:56.000Z,1018.8534067499976
2023-03-18T07:00:19.000Z,1018.877143986724
2023-03-18T07:02:40.000Z,1018.8414088154545
2023-03-18T07:05:02.000Z,1018.7935258035969
2023-03-18T07:07:24.000Z,1018.9476439329263
2023-03-18T07:09:45.000Z,1018.8822893596779
2023-03-18T07:12:07.000Z,1018.8913644901087
2023-03-18T07:14:29.000Z,1018.9348789549684
2023-03-18T07:16:52.000Z,1019.0686169937054
2023-03-18T07:19:14.000Z,1019.0478404364007
2023-03-18T07:21:36.000Z,1019.0900517305043
2023-03-18T07:23:58.000Z,1019.108528762334
2023-03-18T07:26:19.000Z,1019.2216901771409
2023-03-18T07:28:41.000Z,1019.2262548407074
2023-03-18T07:31:04.000Z,1019.209032928437
2023-03-18T07:33:27.000Z,1019.1513988557181
2023-03-18T07:35:49.000Z,1019.179477154334
2023-03-18T07:38:11.000Z,1019.1729095350757
2023-03-18T07:40:32.000Z,1019.1928949380974
2023-03-18T07:42:53.000Z,1019.1964818087416
2023-03-18T07:45:15.000Z,1019.1649020044025
2023-03-18T07:47:37.000Z,1019.2036419383259
2023-03-18T07:49:59.000Z,1019.1702603965226
2023-03-18T07:52:21.000Z,1019.2101804362628
2023-03-18T07:54:43.000Z,1019.240743262134
2023-03-18T07:57:06.000Z,1019.3142757819234
2023-03-18T07:59:26.000Z,1019.4228673920462
2023-03-18T08:01:48.000Z,1019.4860091133662
2023-03-18T08:04:11.000Z,1019.4744240427021
2023-03-18T08:06:35.000Z,1019.4887539821895
2023-03-18T08:08:56.000Z,1019.5666175721515
2023-03-18T08:11:19.000Z,1019.4992748879741
2023-03-18T08:13:41.000Z,1019.5387527001485
2023-03-18T08:16:02.000Z,1019.4889842903129
2023-03-18T08:18:24.000Z,1019.4327838880254
2023-03-18T08:20:47.000Z,1019.4437462258339
2023-03-18T08:23:09.000Z,1019.4364938310382
2023-03-18T08:25:29.000Z,1019.4702385659705
2023-03-18T08:27:53.000Z,1019.460119995003
2023-03-18T08:30:14.000Z,1019.5062564589333
2023-03-18T08:32:35.000Z,1019.543112451612
2023-03-18T08:34:58.000Z,1019.5580475886447
2023-03-18T08:37:22.000Z,1019.5238957151715
2023-03-18T08:39:49.000Z,1019.5050881982584
2023-03-18T08:42:11.000Z,1019.6025696121363
2023-03-18T08:44:34.000Z,1019.6493844138936
2023-03-18T08:46:57.000Z,1019.6987007271487
2023-03-18T08:49:20.000Z,1019.715050931571
2023-03-18T08:51:41.000Z,1019.6926126517232
2023-03-18T08:54:03.000Z,1019.6411266063569
2023-03-18T08:56:24.000Z,1019.677875785444
2023-03-18T08:58:45.000Z,1019.664181047156
2023-03-18T09:01:08.000Z,1019.635663365113
2023-03-18T09:03:29.000Z,1019.6658505322521
2023-03-18T09:05:51.000Z,1019.6561808079354
2023-03-18T09:08:14.000Z,1019.6931587740148
2023-03-18T09:10:35.000Z,1019.7530126143963
2023-03-18T09:12:58.000Z,1019.7318228833274
2023-03-18T09:15:22.000Z,1019.7267246639407
2023-03-18T09:17:46.000Z,1019.7236661599395
2023-03-18T09:20:11.000Z,1019.7091212722003
2023-03-18T09:22:36.000Z,1019.7399630923034
2023-03-18T09:25:01.000Z,1019.801279100084
2023-03-18T09:27:28.000Z,1019.8276085077764
2023-03-18T09:29:53.000Z,1019.7629563675425
2023-03-18T09:32:19.000Z,1019.7163180832704
2023-03-18T09:34:45.000Z,1019.729169053339
2023-03-18T09:37:10.000Z,1019.7217426739177
2023-03-18T09:39:33.000Z,1019.7138067535079
2023-03-18T09:41:58.000Z,1019.7607465752056
2023-03-18T09:44:22.000Z,1019.7753550092431
2023-03-18T09:46:47.000Z,1019.7932571013184
2023-03-18T09:49:13.000Z,1019.8049380026134
2023-03-18T09:51:39.000Z,1019.7942839428745
2023-03-18T09:54:04.000Z,1019.78285030378
2023-03-18T09:56:31.000Z,1019.7772362507802
2023-03-18T09:58:55.000Z,1019.8055134878501
2023-03-18T10:01:20.000Z,1019.7988841289126
2023-03-18T10:03:46.000Z,1019.8162252959821
2023-03-18T10:06:10.000Z,1019.8668994871107
2023-03-18T10:08:35.000Z,1019.881222153755
2023-03-18T10:11:03.000Z,1019.864217542158
2023-03-18T10:13:30.000Z,1019.8182832953728
2023-03-18T10:15:56.000Z,1019.7900130446379
2023-03-18T10:18:20.000Z,1019.7327737560821
2023-03-18T10:22:04.000Z,1019.82
2023-03-18T10:24:53.000Z,1019.83
2023-03-18T10:27:18.000Z,1019.87
2023-03-18T10:29:43.000Z,1019.94
2023-03-18T10:32:06.000Z,1019.88
2023-03-18T10:34:32.000Z,1019.91
2023-03-18T10:36:58.000Z,1019.89
2023-03-18T10:39:20.000Z,1019.9
2023-03-18T10:39:55.000Z,1019.67
2023-03-18T10:41:42.000Z,1019.94
2023-03-18T10:44:04.000Z,1019.88
2023-03-18T11:09:04.000Z,1019.73
2023-03-18T11:11:40.000Z,1019.72
2023-03-18T11:14:11.000Z,1019.73
2023-03-18T11:16:40.000Z,1019.72
2023-03-18T11:19:12.000Z,1019.74
2023-03-18T11:21:41.000Z,1019.79
2023-03-18T11:24:13.000Z,1019.78
2023-03-18T11:26:47.000Z,1019.73
2023-03-18T11:29:17.000Z,1019.77
2023-03-18T11:31:47.000Z,1019.83
2023-03-18T11:34:19.000Z,1019.76
2023-03-18T11:36:48.000Z,1019.74
2023-03-18T11:39:20.000Z,1019.74
2023-03-18T11:41:49.000Z,1019.76
2023-03-18T11:44:22.000Z,1019.75
2023-03-18T11:46:51.000Z,1019.74
2023-03-18T11:49:24.000Z,1019.71
2023-03-18T11:52:05.000Z,1019.72
2023-03-18T11:54:37.000Z,1019.67
2023-03-18T11:57:06.000Z,1019.65
2023-03-18T11:59:42.000Z,1019.62
2023-03-18T12:02:13.000Z,1019.59
2023-03-18T12:04:43.000Z,1019.62
2023-03-18T12:07:13.000Z,1019.6
2023-03-18T12:09:55.000Z,1019.64
2023-03-18T12:12:26.000Z,1019.63
2023-03-18T12:14:58.000Z,1019.6
2023-03-18T12:15:36.000Z,1019.6
2023-03-18T12:18:08.000Z,1019.62
2023-03-18T12:20:42.000Z,1019.64
2023-03-18T12:23:15.000Z,1019.62
2023-03-18T12:25:45.000Z,1019.69
2023-03-18T12:26:21.000Z,1019.59
2023-03-18T12:28:51.000Z,1019.69
2023-03-18T12:31:24.000Z,1019.6
2023-03-18T12:33:54.000Z,1019.52
2023-03-18T12:36:23.000Z,1019.55
2023-03-18T12:38:51.000Z,1019.57
2023-03-18T12:39:45.000Z,1019.46
2023-03-18T12:42:16.000Z,1019.51
2023-03-18T12:44:44.000Z,1019.46
2023-03-18T12:47:12.000Z,1019.53
2023-03-18T12:49:42.000Z,1019.46
2023-03-18T12:52:11.000Z,1019.53
2023-03-18T12:54:39.000Z,1019.42
2023-03-18T12:57:09.000Z,1019.48
2023-03-18T12:59:37.000Z,1019.39
2023-03-18T13:02:04.000Z,1019.44
2023-03-18T13:04:34.000Z,1019.36
2023-03-18T13:07:03.000Z,1019.48
2023-03-18T13:09:28.000Z,1019.52
2023-03-18T13:12:00.000Z,1019.39
2023-03-18T13:14:28.000Z,1019.41
2023-03-18T13:16:54.000Z,1019.34
2023-03-18T13:19:25.000Z,1019.47
2023-03-18T13:21:53.000Z,1019.34
2023-03-18T13:24:19.000Z,1019.43
2023-03-18T13:26:49.000Z,1019.27
2023-03-18T13:29:17.000Z,1019.33
2023-03-18T13:31:44.000Z,1019.27
2023-03-18T13:34:15.000Z,1019.38
2023-03-18T13:36:43.000Z,1019.26
2023-03-18T13:39:12.000Z,1019.38
2023-03-18T13:41:43.000Z,1019.32
2023-03-18T13:44:10.000Z,1019.38
2023-03-18T13:46:40.000Z,1019.2
2023-03-18T13:49:14.000Z,1019.32
2023-03-18T13:51:45.000Z,1019.23
2023-03-18T13:54:13.000Z,1019.29
2023-03-18T13:56:44.000Z,1019.21
2023-03-18T13:59:13.000Z,1019.19
2023-03-18T14:01:44.000Z,1019.05
2023-03-18T14:04:14.000Z,1019.15
2023-03-18T14:06:41.000Z,1019.06
2023-03-18T14:09:13.000Z,1019.16
2023-03-18T14:11:49.000Z,1019.05
2023-03-18T14:14:18.000Z,1019.14
2023-03-18T14:16:48.000Z,1019.02
2023-03-18T14:19:18.000Z,1019.08
2023-03-18T14:21:53.000Z,1018.96
2023-03-18T14:24:29.000Z,1019.02
2023-03-18T14:27:03.000Z,1018.89
2023-03-18T14:29:33.000Z,1019.0
2023-03-18T14:32:04.000Z,1018.95
2023-03-18T14:34:39.000Z,1018.94
2023-03-18T14:37:11.000Z,1018.99
2023-03-18T14:39:48.000Z,1018.93
2023-03-18T14:42:19.000Z,1018.97
2023-03-18T14:44:50.000Z,1018.89
2023-03-18T14:47:19.000Z,1018.97
2023-03-18T14:49:51.000Z,1018.85
2023-03-18T14:52:20.000Z,1018.95
2023-03-18T14:54:53.000Z,1018.78
2023-03-18T14:57:23.000Z,1018.91
2023-03-18T14:59:59.000Z,1018.85
2023-03-18T15:02:35.000Z,1018.91
2023-03-18T15:05:10.000Z,1018.86
2023-03-18T15:07:43.000Z,1018.73
2023-03-18T15:10:11.000Z,1018.86
2023-03-18T15:12:42.000Z,1018.73
2023-03-18T15:15:12.000Z,1018.8
2023-03-18T15:17:40.000Z,1018.79
2023-03-18T15:20:11.000Z,1018.86
2023-03-18T15:22:41.000Z,1018.8
2023-03-18T15:25:12.000Z,1018.89
2023-03-18T15:27:41.000Z,1018.8
2023-03-18T15:30:10.000Z,1018.88
2023-03-18T15:32:40.000Z,1018.82
2023-03-18T15:35:08.000Z,1018.94
2023-03-18T15:37:39.000Z,1018.8
2023-03-18T15:40:08.000Z,1018.76
2023-03-18T15:42:38.000Z,1018.87
2023-03-18T15:45:09.000Z,1018.93
2023-03-18T15:47:35.000Z,1018.92
2023-03-18T15:50:06.000Z,1018.88
2023-03-18T15:52:35.000Z,1018.9
2023-03-18T15:55:03.000Z,1018.8
2023-03-18T15:57:33.000Z,1018.88
2023-03-18T16:00:00.000Z,1018.8
2023-03-18T16:02:31.000Z,1018.9
2023-03-18T16:05:00.000Z,1018.79
2023-03-18T16:07:27.000Z,1018.88
2023-03-18T16:09:57.000Z,1018.81
2023-03-18T16:12:25.000Z,1018.95
2023-03-18T16:14:54.000Z,1018.88
2023-03-18T16:17:23.000Z,1018.98
2023-03-18T16:19:51.000Z,1018.95
2023-03-18T16:22:22.000Z,1019.04
2023-03-18T16:24:50.000Z,1018.98
2023-03-18T16:27:17.000Z,1019.04
2023-03-18T16:29:50.000Z,1018.97
2023-03-18T16:32:20.000Z,1019.08
2023-03-18T16:34:49.000Z,1018.94
2023-03-18T16:37:15.000Z,1019.07
2023-03-18T16:39:45.000Z,1018.97
2023-03-18T16:42:14.000Z,1019.05
2023-03-18T16:44:42.000Z,1019.07
2023-03-18T16:47:09.000Z,1019.08
2023-03-18T16:49:39.000Z,1019.22
2023-03-18T16:52:07.000Z,1019.14
2023-03-18T16:54:34.000Z,1019.28
2023-03-18T16:57:04.000Z,1019.18
2023-03-18T16:59:32.000Z,1019.26
2023-03-18T17:01:58.000Z,1019.24
2023-03-18T17:04:32.000Z,1019.29
2023-03-18T17:06:58.000Z,1019.24
2023-03-18T17:09:28.000Z,1019.32
2023-03-18T17:11:56.000Z,1019.25
2023-03-18T17:14:23.000Z,1019.34
2023-03-18T17:16:52.000Z,1019.26
2023-03-18T17:19:21.000Z,1019.38
2023-03-18T17:21:48.000Z,1019.28
2023-03-18T17:24:16.000Z,1019.34
2023-03-18T17:26:46.000Z,1019.32
2023-03-18T17:29:13.000Z,1019.29
2023-03-18T17:31:41.000Z,1019.42
2023-03-18T17:34:11.000Z,1019.34
2023-03-18T17:36:45.000Z,1019.38
2023-03-18T17:39:13.000Z,1019.46
2023-03-18T17:41:41.000Z,1019.56
2023-03-18T17:44:11.000Z,1019.47
2023-03-18T17:46:39.000Z,1019.59
2023-03-18T17:49:07.000Z,1019.44
2023-03-18T17:51:37.000Z,1019.56
2023-03-18T17:54:06.000Z,1019.48
2023-03-18T17:56:33.000Z,1019.56
2023-03-18T17:59:01.000Z,1019.5
2023-03-18T18:01:30.000Z,1019.54
2023-03-18T18:03:57.000Z,1019.46
2023-03-18T18:06:25.000Z,1019.57
2023-03-18T18:08:57.000Z,1019.42
2023-03-18T18:11:26.000Z,1019.53
2023-03-18T18:13:55.000Z,1019.47
2023-03-18T18:16:23.000Z,1019.5
2023-03-18T18:18:53.000Z,1019.45
2023-03-18T18:21:22.000Z,1019.56
2023-03-18T18:23:49.000Z,1019.5
2023-03-18T18:26:20.000Z,1019.51
2023-03-18T18:28:49.000Z,1019.47
2023-03-18T18:31:17.000Z,1019.53
2023-03-18T18:33:48.000Z,1019.52
2023-03-18T18:36:15.000Z,1019.45
2023-03-18T18:38:45.000Z,1019.5
2023-03-18T18:41:14.000Z,1019.45
2023-03-18T18:43:41.000Z,1019.56
2023-03-18T18:46:12.000Z,1019.45
2023-03-18T18:48:39.000Z,1019.54
2023-03-18T18:51:07.000Z,1019.46
2023-03-18T18:53:37.000Z,1019.54
2023-03-18T18:56:05.000Z,1019.51
2023-03-18T18:58:35.000Z,1019.56
2023-03-18T19:01:04.000Z,1019.48
2023-03-18T19:03:31.000Z,1019.55
2023-03-18T19:06:02.000Z,1019.41
2023-03-18T19:08:30.000Z,1019.48
2023-03-18T19:10:57.000Z,1019.44
2023-03-18T19:13:28.000Z,1019.51
2023-03-18T19:15:55.000Z,1019.41
2023-03-18T19:18:24.000Z,1019.51
2023-03-18T19:20:54.000Z,1019.42
2023-03-18T19:23:22.000Z,1019.53
2023-03-18T19:25:53.000Z,1019.53
2023-03-18T19:28:21.000Z,1019.58
2023-03-18T19:30:48.000Z,1019.61
2023-03-18T19:33:20.000Z,1019.5
2023-03-18T19:35:47.000Z,1019.61
2023-03-18T19:38:17.000Z,1019.53
2023-03-18T19:40:45.000Z,1019.57
2023-03-18T19:43:14.000Z,1019.51
2023-03-18T19:45:44.000Z,1019.57
2023-03-18T19:48:12.000Z,1019.55
2023-03-18T19:50:40.000Z,1019.61
2023-03-18T19:53:10.000Z,1019.57
2023-03-18T19:55:38.000Z,1019.72
2023-03-18T19:58:04.000Z,1019.7
2023-03-18T20:00:33.000Z,1019.78
2023-03-18T20:03:02.000Z,1019.75
2023-03-18T20:05:29.000Z,1019.81
2023-03-18T20:07:59.000Z,1019.76
2023-03-18T20:10:28.000Z,1019.82
2023-03-18T20:12:54.000Z,1019.78
2023-03-18T20:15:22.000Z,1019.76
2023-03-18T20:17:51.000Z,1019.82
2023-03-18T20:20:20.000Z,1019.74
2023-03-18T20:22:51.000Z,1019.81
2023-03-18T20:25:20.000Z,1019.8
2023-03-18T20:27:50.000Z,1019.81
2023-03-18T20:30:19.000Z,1019.76
2023-03-18T20:32:46.000Z,1019.79
2023-03-18T20:35:16.000Z,1019.74
2023-03-18T20:37:44.000Z,1019.83
2023-03-18T20:40:11.000Z,1019.71
2023-03-18T20:42:41.000Z,1019.85
2023-03-18T20:45:09.000Z,1019.79
2023-03-18T20:47:36.000Z,1019.83
2023-03-18T20:50:05.000Z,1019.78
2023-03-18T20:52:34.000Z,1019.83
2023-03-18T20:55:01.000Z,1019.73
2023-03-18T20:57:28.000Z,1019.79
2023-03-18T20:59:58.000Z,1019.77
2023-03-18T21:02:26.000Z,1019.81
2023-03-18T21:04:53.000Z,1019.85
2023-03-18T21:07:23.000Z,1019.81
2023-03-18T21:09:50.000Z,1019.87
2023-03-18T21:12:17.000Z,1019.85
2023-03-18T21:14:46.000Z,1019.98
2023-03-18T21:17:14.000Z,1019.87
2023-03-18T21:19:41.000Z,1019.94
2023-03-18T21:22:08.000Z,1019.91
2023-03-18T21:24:39.000Z,1019.98
2023-03-18T21:27:07.000Z,1019.96
2023-03-18T21:29:34.000Z,1020.05
2023-03-18T21:32:04.000Z,1019.99
2023-03-18T21:34:47.000Z,1020.12
2023-03-18T21:37:28.000Z,1020.12
2023-03-18T21:40:10.000Z,1020.09
2023-03-18T21:42:53.000Z,1020.21
2023-03-18T21:45:32.000Z,1020.18
2023-03-18T21:48:15.000Z,1020.13
2023-03-18T21:51:00.000Z,1020.13
2023-03-18T21:53:42.000Z,1020.15
2023-03-18T21:56:24.000Z,1020.05
2023-03-18T21:59:05.000Z,1020.08
2023-03-18T22:01:55.000Z,1020.14
2023-03-18T22:04:39.000Z,1020.13
2023-03-18T22:07:23.000Z,1019.97
2023-03-18T22:10:09.000Z,1020.0
2023-03-18T22:12:51.000Z,1020.0
2023-03-18T22:15:33.000Z,1020.0
2023-03-18T22:18:14.000Z,1019.88
2023-03-18T22:20:57.000Z,1020.03
2023-03-18T22:23:43.000Z,1020.02
2023-03-18T22:26:26.000Z,1019.94
2023-03-18T22:29:08.000Z,1019.94
2023-03-18T22:31:49.000Z,1019.95
2023-03-18T22:34:30.000Z,1019.91
2023-03-18T22:37:12.000Z,1019.84
2023-03-18T22:39:53.000Z,1019.88
2023-03-18T22:42:41.000Z,1019.91
2023-03-18T22:45:23.000Z,1019.88
2023-03-18T22:48:05.000Z,1019.95
2023-03-18T22:50:47.000Z,1019.98
2023-03-18T22:53:32.000Z,1019.99
2023-03-18T22:56:15.000Z,1019.94
2023-03-18T22:58:57.000Z,1020.1
2023-03-18T23:01:51.000Z,1020.06
2023-03-18T23:04:33.000Z,1020.06
2023-03-18T23:07:23.000Z,1020.01
2023-03-18T23:10:05.000Z,1020.03
2023-03-18T23:12:47.000Z,1020.03
2023-03-18T23:15:30.000Z,1019.96
2023-03-18T23:18:12.000Z,1019.97
2023-03-18T23:20:54.000Z,1020.07
2023-03-18T23:23:42.000Z,1020.03
2023-03-18T23:26:24.000Z,1019.94
2023-03-18T23:29:06.000Z,1019.99
2023-03-18T23:31:53.000Z,1020.06
2023-03-18T23:34:40.000Z,1020.08
2023-03-18T23:37:28.000Z,1019.96
2023-03-18T23:40:10.000Z,1020.02
2023-03-18T23:42:51.000Z,1020.03
2023-03-18T23:45:30.000Z,1019.97
2023-03-18T23:48:14.000Z,1020.02
2023-03-18T23:50:59.000Z,1020.04
2023-03-18T23:53:41.000Z,1020.03
2023-03-18T23:56:24.000Z,1019.93
2023-03-18T23:59:07.000Z,1019.91
